createdAt,value
2022-08-28T09:22:33.145Z,42.92
2022-08-28T09:25:36.470Z,42.55
2022-08-28T09:28:20.541Z,41.94
2022-08-28T09:31:04.952Z,41.66
2022-08-28T09:33:48.589Z,41.63
2022-08-28T09:36:32.711Z,41.80
2022-08-28T09:39:18.641Z,41.81
2022-08-28T09:42:25.015Z,41.57
2022-08-28T09:45:14.704Z,41.63
2022-08-28T09:47:58.319Z,41.65
2022-08-28T09:50:42.668Z,41.85
2022-08-28T09:53:25.834Z,41.50
2022-08-28T09:56:17.985Z,41.05
2022-08-28T09:59:02.293Z,40.83
2022-08-28T10:01:52.321Z,40.64
2022-08-28T10:04:42.657Z,40.53
2022-08-28T10:07:31.273Z,40.49
2022-08-28T10:10:19.087Z,38.70
2022-08-28T10:13:09.618Z,37.29
2022-08-28T10:16:01.775Z,37.24
2022-08-28T10:18:50.501Z,38.03
2022-08-28T10:21:38.445Z,38.53
2022-08-28T10:24:28.737Z,39.01
2022-08-28T10:27:15.630Z,38.85
2022-08-28T10:30:12.525Z,38.96
2022-08-28T10:33:03.387Z,39.44
2022-08-28T10:35:50.624Z,39.28
2022-08-28T10:38:38.191Z,39.58
2022-08-28T10:41:25.180Z,39.49
2022-08-28T10:44:10.375Z,39.35
2022-08-28T10:46:56.947Z,39.57
2022-08-28T10:49:42.469Z,39.65
2022-08-28T10:52:27.944Z,39.27
2022-08-28T10:55:14.067Z,39.73
2022-08-28T10:57:58.909Z,39.45
2022-08-28T11:00:43.578Z,39.54
2022-08-28T11:03:36.693Z,39.30
2022-08-28T11:06:24.021Z,39.35
2022-08-28T11:09:23.145Z,39.38
2022-08-28T11:12:09.654Z,39.74
2022-08-28T11:14:52.780Z,39.51
2022-08-28T11:17:40.544Z,39.12
2022-08-28T11:20:25.871Z,39.04
2022-08-28T11:23:11.451Z,39.04
2022-08-28T11:25:58.450Z,39.17
2022-08-28T11:28:43.254Z,39.45
2022-08-28T11:31:34.098Z,39.36
2022-08-28T11:34:31.936Z,38.94
2022-08-28T11:37:36.301Z,38.34
2022-08-28T11:40:20.105Z,37.27
2022-08-28T11:43:31.719Z,36.59
2022-08-28T11:46:26.105Z,36.88
2022-08-28T11:49:33.959Z,36.29
2022-08-28T11:52:26.565Z,36.92
2022-08-28T11:55:15.146Z,37.48
2022-08-28T12:00:52.453Z,37.85
2022-08-28T12:03:37.122Z,37.88
2022-08-28T12:06:40.059Z,37.53
2022-08-28T12:09:52.856Z,37.77
2022-08-28T12:12:53.541Z,37.74
2022-08-28T12:15:40.825Z,37.71
2022-08-28T12:18:38.530Z,38.03
2022-08-28T12:21:23.802Z,37.93
2022-08-28T12:24:09.094Z,37.59
2022-08-28T12:26:54.625Z,37.50
2022-08-28T12:29:48.541Z,37.05
2022-08-28T12:32:36.369Z,35.95
2022-08-28T12:35:20.842Z,34.78
2022-08-28T12:38:05.127Z,34.10
2022-08-28T12:40:52.893Z,35.16
2022-08-28T12:43:41.693Z,34.31
2022-08-28T12:46:31.408Z,33.94
2022-08-28T12:49:32.167Z,32.99
2022-08-28T12:52:17.432Z,33.98
2022-08-28T12:55:00.257Z,34.39
2022-08-28T12:57:46.021Z,33.95
2022-08-28T13:00:33.417Z,33.85
2022-08-28T13:03:17.680Z,33.44
2022-08-28T13:06:03.966Z,33.65
2022-08-28T13:08:49.711Z,33.21
2022-08-28T13:11:34.962Z,32.97
2022-08-28T13:14:37.156Z,32.94
2022-08-28T13:17:34.831Z,32.60
2022-08-28T13:20:29.854Z,31.35
2022-08-28T13:23:28.983Z,31.31
2022-08-28T13:26:12.653Z,31.10
2022-08-28T13:28:55.885Z,31.07
2022-08-28T13:31:39.846Z,30.90
2022-08-28T13:34:24.734Z,31.63
2022-08-28T13:37:14.990Z,31.27
2022-08-28T13:40:08.064Z,31.37
2022-08-28T13:42:56.397Z,31.96
2022-08-28T13:45:42.635Z,31.85
2022-08-28T13:48:27.605Z,32.06
2022-08-28T13:51:14.218Z,32.17
2022-08-28T13:54:04.936Z,32.44
2022-08-28T13:56:48.984Z,31.67
2022-08-28T13:59:32.516Z,31.74
2022-08-28T14:02:33.317Z,31.58
2022-08-28T14:05:16.250Z,30.96
2022-08-28T14:07:59.553Z,31.12
2022-08-28T14:10:43.776Z,30.71
2022-08-28T14:13:27.940Z,30.80
2022-08-28T14:16:12.957Z,31.25
2022-08-28T14:18:57.285Z,31.19
2022-08-28T14:21:41.313Z,31.29
2022-08-28T14:24:24.967Z,30.74
2022-08-28T14:27:09.564Z,30.66
2022-08-28T14:29:53.402Z,32.25
2022-08-28T14:32:37.365Z,31.19
2022-08-28T14:35:20.444Z,30.93
2022-08-28T14:38:03.288Z,30.63
2022-08-28T14:40:46.416Z,31.04
2022-08-28T14:43:31.689Z,30.73
2022-08-28T14:49:19.176Z,30.10
2022-08-28T14:52:02.086Z,29.33
2022-08-28T14:54:45.104Z,29.00
2022-08-28T14:57:29.637Z,29.35
2022-08-28T15:00:16.315Z,29.31
2022-08-28T15:02:59.857Z,29.05
2022-08-28T15:05:43.365Z,28.90
2022-08-28T15:08:27.435Z,28.94
2022-08-28T15:11:14.200Z,28.92
2022-08-28T15:13:59.496Z,29.08
2022-08-28T15:16:45.352Z,28.88
2022-08-28T15:19:30.160Z,28.93
2022-08-28T15:22:13.053Z,28.73
2022-08-28T15:25:10.169Z,29.04
2022-08-28T15:27:53.310Z,29.05
2022-08-28T15:30:36.368Z,29.23
2022-08-28T15:33:20.862Z,29.02
2022-08-28T15:36:04.408Z,29.32
2022-08-28T15:39:04.935Z,29.22
2022-08-28T15:41:48.120Z,30.06
2022-08-28T15:44:32.624Z,29.81
2022-08-28T15:47:16.549Z,30.16
2022-08-28T15:50:01.369Z,30.80
2022-08-28T15:52:44.274Z,30.12
2022-08-28T15:55:28.037Z,30.93
2022-08-28T15:58:13.880Z,31.75
2022-08-28T16:00:57.357Z,31.92
2022-08-28T16:03:41.664Z,32.09
2022-08-28T16:06:27.089Z,31.89
2022-08-28T16:09:10.824Z,32.09
2022-08-28T16:11:53.819Z,32.29
2022-08-28T16:14:36.785Z,32.13
2022-08-28T16:17:20.560Z,32.44
2022-08-28T16:20:06.645Z,32.34
2022-08-28T16:22:56.788Z,32.36
2022-08-28T16:25:40.305Z,32.43
2022-08-28T16:28:23.300Z,32.58
2022-08-28T16:31:07.315Z,32.83
2022-08-28T16:33:50.673Z,33.10
2022-08-28T16:36:34.360Z,33.29
2022-08-28T16:39:18.681Z,33.10
2022-08-28T16:42:01.514Z,33.35
2022-08-28T16:44:44.413Z,33.79
2022-08-28T16:47:27.737Z,33.79
2022-08-28T16:50:15.146Z,33.96
2022-08-28T16:52:58.083Z,34.09
2022-08-28T16:55:43.646Z,34.19
2022-08-28T16:58:26.678Z,34.26
2022-08-28T17:01:10.946Z,34.33
2022-08-28T17:03:55.906Z,34.31
2022-08-28T17:06:40.127Z,34.45
2022-08-28T17:09:23.104Z,34.56
2022-08-28T17:12:07.669Z,34.65
2022-08-28T17:14:50.674Z,34.66
2022-08-28T17:17:33.581Z,34.99
2022-08-28T17:20:30.591Z,35.12
2022-08-28T17:23:13.763Z,35.10
2022-08-28T17:25:57.072Z,35.14
2022-08-28T17:28:44.200Z,35.36
2022-08-28T17:31:30.394Z,35.14
2022-08-28T17:34:13.664Z,35.68
2022-08-28T17:36:57.186Z,35.59
2022-08-28T17:39:40.110Z,35.85
2022-08-28T17:42:23.172Z,35.64
2022-08-28T17:45:08.508Z,35.65
2022-08-28T17:47:53.942Z,35.71
2022-08-28T17:50:37.268Z,36.08
2022-08-28T17:53:27.117Z,36.13
2022-08-28T17:56:11.702Z,36.14
2022-08-28T17:58:54.733Z,36.40
2022-08-28T18:01:41.942Z,36.33
2022-08-28T18:04:25.013Z,36.48
2022-08-28T18:07:08.583Z,36.53
2022-08-28T18:09:51.418Z,36.66
2022-08-28T18:12:34.590Z,36.81
2022-08-28T18:15:17.870Z,37.01
2022-08-28T18:18:02.933Z,37.29
2022-08-28T18:20:45.822Z,37.05
2022-08-28T18:23:30.172Z,37.39
2022-08-28T18:26:13.475Z,37.59
2022-08-28T18:28:56.426Z,37.80
2022-08-28T18:31:39.407Z,37.74
2022-08-28T18:34:23.920Z,37.63
2022-08-28T18:37:07.337Z,37.89
2022-08-28T18:39:51.600Z,37.96
2022-08-28T18:42:34.664Z,37.87
2022-08-28T18:45:18.461Z,37.77
2022-08-28T18:48:02.020Z,38.05
2022-08-28T18:50:47.491Z,38.10
2022-08-28T18:53:30.346Z,38.22
2022-08-28T18:56:13.224Z,38.42
2022-08-28T18:58:56.100Z,38.43
2022-08-28T19:01:39.419Z,38.30
2022-08-28T19:04:22.315Z,38.41
2022-08-28T19:07:06.769Z,38.60
2022-08-28T19:09:49.666Z,38.42
2022-08-28T19:12:33.491Z,38.42
2022-08-28T19:15:18.330Z,38.40
2022-08-28T19:18:02.697Z,38.44
2022-08-28T19:20:45.557Z,38.57
2022-08-28T19:23:29.874Z,38.53
2022-08-28T19:26:13.080Z,38.69
2022-08-28T19:28:56.568Z,38.77
2022-08-28T19:31:39.643Z,38.55
2022-08-28T19:34:22.676Z,38.74
2022-08-28T19:37:06.374Z,38.25
2022-08-28T19:39:56.065Z,38.34
2022-08-28T19:42:39.689Z,38.63
2022-08-28T19:45:22.569Z,38.60
2022-08-28T19:48:05.776Z,38.67
2022-08-28T19:50:48.691Z,38.95
2022-08-28T19:53:31.589Z,38.93
2022-08-28T19:56:15.797Z,38.77
2022-08-28T19:58:59.330Z,39.27
2022-08-28T20:01:44.915Z,38.84
2022-08-28T20:04:27.804Z,39.07
2022-08-28T20:07:10.598Z,39.06
2022-08-28T20:09:53.561Z,38.72
2022-08-28T20:12:38.568Z,38.83
2022-08-28T20:15:21.686Z,39.36
2022-08-28T20:18:06.379Z,39.29
2022-08-28T20:20:49.863Z,39.22
2022-08-28T20:23:32.898Z,39.45
2022-08-28T20:26:15.778Z,39.85
2022-08-28T20:28:59.975Z,39.51
2022-08-28T20:31:43.954Z,39.50
2022-08-28T20:34:26.834Z,39.52
2022-08-28T20:37:09.627Z,39.60
2022-08-28T20:39:57.407Z,39.52
2022-08-28T20:42:40.276Z,39.82
2022-08-28T20:45:24.633Z,39.55
2022-08-28T20:48:07.990Z,39.86
2022-08-28T20:50:50.864Z,39.65
2022-08-28T20:53:39.184Z,40.15
2022-08-28T20:56:21.976Z,39.77
2022-08-28T20:59:05.222Z,39.99
2022-08-28T21:01:50.262Z,39.82
2022-08-28T21:04:35.480Z,40.13
2022-08-28T21:07:19.396Z,39.96
2022-08-28T21:10:05.423Z,39.83
2022-08-28T21:12:49.366Z,40.07
2022-08-28T21:15:32.278Z,39.82
2022-08-28T21:18:16.608Z,39.77
2022-08-28T21:21:00.180Z,39.44
2022-08-28T21:23:43.203Z,39.71
2022-08-28T21:26:26.233Z,39.73
2022-08-28T21:29:09.152Z,39.61
2022-08-28T21:31:53.003Z,39.75
2022-08-28T21:34:37.262Z,39.46
2022-08-28T21:37:20.090Z,39.43
2022-08-28T21:40:04.020Z,39.55
2022-08-28T21:42:46.859Z,39.69
2022-08-28T21:45:29.743Z,39.55
2022-08-28T21:48:12.630Z,39.69
2022-08-28T21:50:56.931Z,39.51
2022-08-28T21:53:40.905Z,39.68
2022-08-28T21:56:25.395Z,39.34
2022-08-28T21:59:08.279Z,39.70
2022-08-28T22:01:51.106Z,39.44
2022-08-28T22:04:33.893Z,39.70
2022-08-28T22:07:18.146Z,39.64
2022-08-28T22:10:01.344Z,39.82
2022-08-28T22:12:44.148Z,39.57
2022-08-28T22:15:26.970Z,39.82
2022-08-28T22:18:10.364Z,39.77
2022-08-28T22:21:10.638Z,39.81
2022-08-28T22:23:54.912Z,39.93
2022-08-28T22:26:37.790Z,40.13
2022-08-28T22:29:20.900Z,42.06
2022-08-28T22:32:04.175Z,40.38
2022-08-28T22:34:47.321Z,40.36
2022-08-28T22:37:30.116Z,40.20
2022-08-28T22:40:14.994Z,40.00
2022-08-28T22:42:57.892Z,39.80
2022-08-28T22:45:40.761Z,39.99
2022-08-28T22:48:23.630Z,39.96
2022-08-28T22:51:07.591Z,40.24
2022-08-28T22:53:50.386Z,39.97
2022-08-28T22:56:34.629Z,40.33
2022-08-28T22:59:17.415Z,40.06
2022-08-28T23:02:00.462Z,40.23
2022-08-28T23:04:43.273Z,40.17
2022-08-28T23:07:26.203Z,39.87
2022-08-28T23:10:09.516Z,39.80
2022-08-28T23:12:53.978Z,39.90
2022-08-28T23:15:36.926Z,40.03
2022-08-28T23:18:21.213Z,40.33
2022-08-28T23:21:07.399Z,40.17
2022-08-28T23:23:50.598Z,40.78
2022-08-28T23:26:33.955Z,40.22
2022-08-28T23:29:18.116Z,40.48
2022-08-28T23:32:01.023Z,40.21
2022-08-28T23:34:44.141Z,40.21
2022-08-28T23:37:27.154Z,40.39
2022-08-28T23:40:12.052Z,40.30
2022-08-28T23:42:55.124Z,40.39
2022-08-28T23:45:41.519Z,40.21
2022-08-28T23:48:25.050Z,40.27
2022-08-28T23:51:09.639Z,40.41
2022-08-28T23:53:54.647Z,40.23
2022-08-28T23:56:37.765Z,40.28
2022-08-28T23:59:21.148Z,40.56
